createdAt,value
2023-09-14T00:01:02.009Z,11.50
2023-09-14T00:03:29.107Z,11.50
2023-09-14T00:05:56.146Z,11.40
2023-09-14T00:08:23.174Z,11.50
2023-09-14T00:10:58.038Z,11.50
2023-09-14T00:13:25.096Z,11.50
2023-09-14T00:15:52.730Z,11.50
2023-09-14T00:18:21.594Z,11.40
2023-09-14T00:20:49.512Z,11.50
2023-09-14T00:23:16.248Z,11.40
2023-09-14T00:25:42.929Z,11.40
2023-09-14T00:28:09.995Z,11.40
2023-09-14T00:30:36.932Z,11.30
2023-09-14T00:33:04.015Z,11.40
2023-09-14T00:35:31.223Z,11.40
2023-09-14T00:37:57.883Z,11.40
2023-09-14T00:40:24.989Z,11.40
2023-09-14T00:42:52.563Z,11.40
2023-09-14T00:45:21.405Z,11.50
2023-09-14T00:47:50.916Z,11.50
2023-09-14T00:50:18.753Z,11.50
2023-09-14T00:52:48.660Z,11.50
2023-09-14T00:55:21.366Z,11.60
2023-09-14T00:57:49.163Z,11.50
2023-09-14T01:00:17.638Z,11.50
2023-09-14T01:02:45.272Z,11.50
2023-09-14T01:05:16.319Z,11.50
2023-09-14T01:07:43.402Z,11.50
2023-09-14T01:10:16.970Z,11.60
2023-09-14T01:12:48.527Z,11.60
2023-09-14T01:15:32.929Z,11.60
2023-09-14T01:18:03.809Z,11.50
2023-09-14T01:20:43.625Z,11.50
2023-09-14T01:23:52.033Z,11.50
2023-09-14T01:26:19.442Z,11.70
2023-09-14T01:28:46.554Z,11.70
2023-09-14T01:31:13.397Z,11.70
2023-09-14T01:33:40.210Z,11.80
2023-09-14T01:36:18.871Z,11.80
2023-09-14T01:38:46.863Z,11.90
2023-09-14T01:41:15.222Z,11.90
2023-09-14T01:43:46.560Z,11.90
2023-09-14T01:46:13.984Z,11.80
2023-09-14T01:48:40.640Z,11.80
2023-09-14T01:51:07.279Z,11.70
2023-09-14T01:53:33.992Z,11.70
2023-09-14T01:56:00.733Z,11.70
2023-09-14T01:58:27.771Z,11.70
2023-09-14T02:00:54.539Z,11.60
2023-09-14T02:03:21.202Z,11.50
2023-09-14T02:05:55.718Z,11.30
2023-09-14T02:08:22.342Z,11.20
2023-09-14T02:10:48.911Z,11.20
2023-09-14T02:13:15.530Z,11.20
2023-09-14T02:15:42.168Z,11.20
2023-09-14T02:18:08.805Z,11.10
2023-09-14T02:20:36.363Z,11.00
2023-09-14T02:23:03.369Z,11.00
2023-09-14T02:25:29.966Z,11.10
2023-09-14T02:27:56.622Z,11.00
2023-09-14T02:30:23.254Z,11.10
2023-09-14T02:32:49.893Z,11.10
2023-09-14T02:35:16.564Z,11.00
2023-09-14T02:37:43.150Z,11.00
2023-09-14T02:40:10.082Z,11.00
2023-09-14T02:42:38.285Z,11.00
2023-09-14T02:45:08.318Z,11.10
2023-09-14T02:47:34.928Z,11.10
2023-09-14T02:50:01.532Z,11.20
2023-09-14T02:52:28.181Z,11.10
2023-09-14T02:54:54.806Z,11.10
2023-09-14T02:57:21.434Z,11.00
2023-09-14T02:59:48.102Z,10.90
2023-09-14T03:02:14.812Z,10.90
2023-09-14T03:04:41.443Z,10.90
2023-09-14T03:07:08.111Z,10.80
2023-09-14T03:09:34.867Z,10.90
2023-09-14T03:12:01.519Z,10.80
2023-09-14T03:14:28.086Z,10.70
2023-09-14T03:16:54.758Z,10.70
2023-09-14T03:19:21.397Z,10.80
2023-09-14T03:21:48.018Z,10.90
2023-09-14T03:24:14.650Z,10.90
2023-09-14T03:26:41.406Z,11.00
2023-09-14T03:29:08.062Z,11.00
2023-09-14T03:31:36.117Z,11.10
2023-09-14T03:34:02.830Z,11.10
2023-09-14T03:36:31.666Z,11.00
2023-09-14T03:38:58.595Z,11.00
2023-09-14T03:41:25.331Z,11.00
2023-09-14T03:43:51.985Z,11.00
2023-09-14T03:46:18.730Z,10.90
2023-09-14T03:48:45.786Z,10.90
2023-09-14T03:51:12.602Z,10.80
2023-09-14T03:53:39.217Z,10.70
2023-09-14T03:56:05.926Z,10.80
2023-09-14T03:58:32.832Z,10.70
2023-09-14T04:01:00.458Z,10.70
2023-09-14T04:03:27.683Z,10.70
2023-09-14T04:05:54.469Z,10.70
2023-09-14T04:08:22.181Z,10.70
2023-09-14T04:10:52.002Z,10.70
2023-09-14T04:13:26.433Z,10.70
2023-09-14T04:15:53.145Z,10.80
2023-09-14T04:18:20.136Z,10.80
2023-09-14T04:20:50.623Z,10.80
2023-09-14T04:23:17.437Z,10.70
2023-09-14T04:25:47.593Z,10.70
2023-09-14T04:28:15.706Z,10.60
2023-09-14T04:30:49.399Z,10.50
2023-09-14T04:33:18.004Z,10.50
2023-09-14T04:35:45.106Z,10.50
2023-09-14T04:38:12.253Z,10.50
2023-09-14T04:40:40.752Z,10.50
2023-09-14T04:43:07.703Z,10.50
2023-09-14T04:45:34.328Z,10.40
2023-09-14T04:48:01.962Z,10.40
2023-09-14T04:50:29.351Z,10.50
2023-09-14T04:52:56.478Z,10.50
2023-09-14T04:55:23.312Z,10.40
2023-09-14T04:57:50.061Z,10.40
2023-09-14T05:00:16.881Z,10.50
2023-09-14T05:02:43.613Z,10.50
2023-09-14T05:05:11.023Z,10.40
2023-09-14T05:07:39.224Z,10.40
2023-09-14T05:10:08.066Z,10.40
2023-09-14T05:12:34.773Z,10.40
2023-09-14T05:15:01.464Z,10.40
2023-09-14T05:17:28.381Z,10.40
2023-09-14T05:19:55.289Z,10.40
2023-09-14T05:22:22.723Z,10.50
2023-09-14T05:24:49.394Z,10.50
2023-09-14T05:27:16.314Z,10.50
2023-09-14T05:29:44.866Z,10.50
2023-09-14T05:32:11.774Z,10.50
2023-09-14T05:34:38.423Z,10.60
2023-09-14T05:37:05.132Z,10.60
2023-09-14T05:39:31.846Z,10.60
2023-09-14T05:41:58.536Z,10.70
2023-09-14T05:44:26.399Z,10.60
2023-09-14T05:46:53.265Z,10.60
2023-09-14T05:49:20.064Z,10.60
2023-09-14T05:51:46.844Z,10.60
2023-09-14T05:54:13.683Z,10.60
2023-09-14T05:56:42.060Z,10.60
2023-09-14T05:59:21.506Z,10.60
2023-09-14T06:01:56.369Z,10.60
2023-09-14T06:04:23.171Z,10.60
2023-09-14T06:06:50.968Z,10.60
2023-09-14T06:09:17.736Z,10.60
2023-09-14T06:11:44.855Z,10.60
2023-09-14T06:14:11.686Z,10.70
2023-09-14T06:16:40.110Z,10.70
2023-09-14T06:19:06.914Z,10.70
2023-09-14T06:21:35.292Z,10.70
2023-09-14T06:24:02.240Z,10.80
2023-09-14T06:26:29.920Z,10.90
2023-09-14T06:28:59.750Z,10.90
2023-09-14T06:31:27.172Z,11.00
2023-09-14T06:33:54.133Z,11.10
2023-09-14T06:36:21.070Z,11.20
2023-09-14T06:38:49.001Z,11.20
2023-09-14T06:41:17.195Z,11.30
2023-09-14T06:43:48.106Z,11.40
2023-09-14T06:46:15.872Z,11.40
2023-09-14T06:48:42.592Z,11.50
2023-09-14T06:51:09.489Z,11.60
2023-09-14T06:53:37.706Z,11.70
2023-09-14T06:56:08.919Z,11.80
2023-09-14T06:58:36.047Z,12.00
2023-09-14T07:01:05.378Z,12.10
2023-09-14T07:03:38.725Z,12.20
2023-09-14T07:06:05.528Z,12.30
2023-09-14T07:08:32.425Z,12.40
2023-09-14T07:10:59.165Z,12.40
2023-09-14T07:13:27.088Z,12.50
2023-09-14T07:15:53.883Z,12.60
2023-09-14T07:18:28.997Z,12.70
2023-09-14T07:20:57.590Z,12.70
2023-09-14T07:23:25.470Z,12.70
2023-09-14T07:25:52.431Z,12.70
2023-09-14T07:28:20.243Z,12.80
2023-09-14T07:30:48.792Z,12.90
2023-09-14T07:33:16.335Z,13.00
2023-09-14T07:35:43.428Z,13.00
2023-09-14T07:38:11.606Z,13.10
2023-09-14T07:40:39.417Z,13.20
2023-09-14T07:43:06.310Z,13.30
2023-09-14T07:45:39.600Z,13.40
2023-09-14T07:48:08.332Z,13.50
2023-09-14T07:50:37.577Z,13.60
2023-09-14T07:53:04.892Z,13.80
2023-09-14T07:55:31.794Z,13.90
2023-09-14T07:57:59.060Z,14.00
2023-09-14T08:00:26.440Z,14.10
2023-09-14T08:02:53.799Z,14.20
2023-09-14T08:05:21.089Z,14.20
2023-09-14T08:07:47.946Z,14.40
2023-09-14T08:10:14.849Z,14.60
2023-09-14T08:12:41.512Z,14.60
2023-09-14T08:15:09.068Z,14.70
2023-09-14T08:17:37.151Z,14.80
2023-09-14T08:20:04.829Z,14.90
2023-09-14T08:22:31.870Z,15.00
2023-09-14T08:25:01.955Z,15.20
2023-09-14T08:27:31.808Z,15.30
2023-09-14T08:29:58.619Z,15.40
2023-09-14T08:32:25.725Z,15.50
2023-09-14T08:35:01.912Z,15.50
2023-09-14T08:37:28.602Z,15.60
2023-09-14T08:39:55.222Z,15.60
2023-09-14T08:42:25.948Z,15.70
2023-09-14T08:44:54.023Z,15.80
2023-09-14T08:47:23.770Z,15.90
2023-09-14T08:49:52.091Z,16.00
2023-09-14T08:52:20.530Z,16.10
2023-09-14T08:54:49.121Z,16.20
2023-09-14T08:57:16.108Z,16.20
2023-09-14T08:59:44.936Z,16.30
2023-09-14T09:02:14.925Z,16.30
2023-09-14T09:04:42.947Z,16.40
2023-09-14T09:07:11.048Z,16.60
2023-09-14T09:09:37.813Z,16.60
2023-09-14T09:12:05.366Z,16.80
2023-09-14T09:14:32.907Z,16.90
2023-09-14T09:17:00.351Z,16.90
2023-09-14T09:19:28.347Z,16.90
2023-09-14T09:21:55.778Z,17.00
2023-09-14T09:24:28.480Z,17.30
2023-09-14T09:26:56.565Z,17.30
2023-09-14T09:29:24.185Z,17.40
2023-09-14T09:31:52.594Z,17.50
2023-09-14T09:34:26.088Z,17.50
2023-09-14T09:36:57.296Z,17.60
2023-09-14T09:39:24.658Z,17.70
2023-09-14T09:41:51.870Z,17.80
2023-09-14T09:44:19.924Z,18.00
2023-09-14T09:46:47.050Z,18.10
2023-09-14T09:49:18.939Z,18.20
2023-09-14T09:51:50.469Z,18.30
2023-09-14T09:54:20.587Z,18.30
2023-09-14T09:56:47.285Z,18.30
2023-09-14T09:59:16.672Z,18.30
2023-09-14T10:01:48.623Z,18.40
2023-09-14T10:04:17.718Z,18.40
2023-09-14T10:06:52.866Z,18.60
2023-09-14T10:09:19.772Z,18.50
2023-09-14T10:11:48.103Z,18.60
2023-09-14T10:14:17.689Z,18.70
2023-09-14T10:16:46.040Z,18.60
2023-09-14T10:19:13.840Z,18.50
2023-09-14T10:21:42.064Z,18.40
2023-09-14T10:24:11.265Z,18.40
2023-09-14T10:26:38.717Z,18.40
2023-09-14T10:29:10.206Z,18.30
2023-09-14T10:31:37.488Z,18.30
2023-09-14T10:34:05.351Z,18.20
2023-09-14T10:36:33.395Z,18.20
2023-09-14T10:39:01.094Z,18.30
2023-09-14T10:41:28.443Z,18.30
2023-09-14T10:43:56.344Z,18.30
2023-09-14T10:46:27.040Z,18.30
2023-09-14T10:48:56.451Z,18.30
2023-09-14T10:51:23.734Z,18.20
2023-09-14T10:53:53.616Z,18.40
2023-09-14T10:56:24.469Z,18.70
2023-09-14T10:58:52.446Z,18.90
2023-09-14T11:01:51.277Z,19.10
2023-09-14T11:04:20.549Z,19.20
2023-09-14T11:06:51.939Z,19.30
2023-09-14T11:09:21.745Z,19.20
2023-09-14T11:11:56.412Z,19.00
2023-09-14T11:14:26.820Z,19.10
2023-09-14T11:16:57.348Z,19.20
2023-09-14T11:19:55.771Z,19.40
2023-09-14T11:22:29.857Z,19.40
2023-09-14T11:25:00.356Z,19.50
2023-09-14T11:27:30.060Z,19.40
2023-09-14T11:29:59.875Z,19.40
2023-09-14T11:32:30.710Z,19.50
2023-09-14T11:35:03.097Z,19.70
2023-09-14T11:37:34.063Z,20.00
2023-09-14T11:40:08.784Z,20.20
2023-09-14T11:43:12.159Z,20.40
2023-09-14T11:45:43.366Z,20.60
2023-09-14T11:50:47.576Z,20.50
2023-09-14T11:53:22.457Z,20.60
2023-09-14T11:55:50.605Z,20.70
2023-09-14T11:58:18.509Z,20.70
2023-09-14T12:00:52.941Z,20.80
2023-09-14T12:03:19.809Z,20.50
2023-09-14T12:05:48.323Z,20.40
2023-09-14T12:08:16.989Z,20.00
2023-09-14T12:10:45.983Z,19.90
2023-09-14T12:13:17.656Z,19.90
2023-09-14T12:15:46.752Z,19.90
2023-09-14T12:18:19.012Z,19.80
2023-09-14T12:20:49.607Z,19.80
2023-09-14T12:23:16.496Z,19.90
2023-09-14T12:25:47.339Z,20.00
2023-09-14T12:28:14.048Z,20.40
2023-09-14T12:30:41.666Z,20.80
2023-09-14T12:33:08.689Z,21.10
2023-09-14T12:35:35.379Z,21.20
2023-09-14T12:38:05.561Z,21.40
2023-09-14T12:40:38.841Z,21.10
2023-09-14T12:43:06.976Z,21.00
2023-09-14T12:45:35.952Z,20.80
2023-09-14T12:48:09.655Z,21.00
2023-09-14T12:50:36.984Z,21.10
2023-09-14T12:53:10.993Z,21.20
2023-09-14T12:55:45.638Z,20.80
2023-09-14T12:58:13.749Z,20.50
2023-09-14T13:00:40.644Z,20.30
2023-09-14T13:03:11.791Z,20.40
2023-09-14T13:05:38.542Z,20.20
2023-09-14T13:08:06.597Z,20.20
2023-09-14T13:10:37.379Z,20.20
2023-09-14T13:13:13.366Z,20.20
2023-09-14T13:15:41.984Z,20.20
2023-09-14T13:18:15.236Z,20.10
2023-09-14T13:20:50.540Z,20.10
2023-09-14T13:23:18.307Z,20.20
2023-09-14T13:25:44.965Z,20.20
2023-09-14T13:28:12.277Z,20.00
2023-09-14T13:30:39.966Z,20.00
2023-09-14T13:33:07.952Z,20.10
2023-09-14T13:35:34.772Z,20.10
2023-09-14T13:38:01.462Z,20.20
2023-09-14T13:40:29.768Z,20.20
2023-09-14T13:43:00.647Z,20.20
2023-09-14T13:45:31.039Z,20.10
2023-09-14T13:47:58.291Z,20.10
2023-09-14T13:50:25.160Z,20.10
2023-09-14T13:52:52.417Z,20.00
2023-09-14T13:55:19.036Z,20.00
2023-09-14T13:57:47.245Z,20.10
2023-09-14T14:00:18.574Z,20.00
2023-09-14T14:02:50.377Z,20.00
2023-09-14T14:05:17.972Z,19.70
2023-09-14T14:07:44.835Z,19.70
2023-09-14T14:10:12.395Z,19.60
2023-09-14T14:12:39.585Z,19.70
2023-09-14T14:15:06.739Z,19.70
2023-09-14T14:17:33.837Z,19.60
2023-09-14T14:20:00.432Z,19.70
2023-09-14T14:22:27.425Z,19.60
2023-09-14T14:24:54.065Z,19.60
2023-09-14T14:27:20.820Z,19.60
2023-09-14T14:29:47.491Z,19.60
2023-09-14T14:32:14.457Z,19.40
2023-09-14T14:34:41.101Z,19.50
2023-09-14T14:37:07.726Z,19.70
2023-09-14T14:39:34.451Z,19.80
2023-09-14T14:42:01.395Z,19.80
2023-09-14T14:44:29.033Z,19.80
2023-09-14T14:46:55.782Z,19.80
2023-09-14T14:49:22.433Z,19.70
2023-09-14T14:51:49.068Z,19.80
2023-09-14T14:54:15.838Z,19.70
2023-09-14T14:56:42.613Z,19.70
2023-09-14T14:59:09.312Z,19.60
2023-09-14T15:01:36.149Z,19.80
2023-09-14T15:04:03.556Z,19.90
2023-09-14T15:06:30.755Z,20.00
2023-09-14T15:08:57.555Z,20.20
2023-09-14T15:11:24.311Z,20.20
2023-09-14T15:13:53.203Z,20.40
2023-09-14T15:16:19.850Z,20.70
2023-09-14T15:18:46.744Z,20.90
2023-09-14T15:21:14.555Z,20.90
2023-09-14T15:23:41.336Z,20.90
2023-09-14T15:26:08.719Z,21.00
2023-09-14T15:28:35.353Z,21.20
2023-09-14T15:31:14.421Z,21.10
2023-09-14T15:33:41.209Z,21.20
2023-09-14T15:36:08.873Z,21.40
2023-09-14T15:38:35.536Z,21.10
2023-09-14T15:41:02.318Z,21.10
2023-09-14T15:43:29.045Z,21.20
2023-09-14T15:45:58.587Z,21.30
2023-09-14T15:48:28.152Z,21.40
2023-09-14T15:50:55.283Z,21.30
2023-09-14T15:53:24.912Z,21.00
2023-09-14T15:55:54.392Z,20.80
2023-09-14T15:58:21.525Z,20.70
2023-09-14T16:00:48.426Z,20.60
2023-09-14T16:03:16.093Z,20.60
2023-09-14T16:05:42.842Z,20.50
2023-09-14T16:08:12.760Z,20.20
2023-09-14T16:10:40.966Z,20.30
2023-09-14T16:13:10.826Z,20.50
2023-09-14T16:15:38.770Z,20.80
2023-09-14T16:18:06.146Z,21.20
2023-09-14T16:20:33.055Z,21.60
2023-09-14T16:23:00.315Z,22.00
2023-09-14T16:25:27.316Z,22.10
2023-09-14T16:27:55.363Z,22.30
2023-09-14T16:30:22.062Z,22.50
2023-09-14T16:32:50.535Z,22.50
2023-09-14T16:35:17.981Z,22.50
2023-09-14T16:37:44.863Z,22.40
2023-09-14T16:40:12.524Z,22.30
2023-09-14T16:42:39.453Z,22.20
2023-09-14T16:45:06.899Z,22.10
2023-09-14T16:47:33.893Z,22.00
2023-09-14T16:50:01.863Z,21.70
2023-09-14T16:52:28.705Z,21.50
2023-09-14T16:54:55.512Z,21.40
2023-09-14T16:57:25.242Z,21.50
2023-09-14T16:59:52.241Z,21.40
2023-09-14T17:02:22.584Z,21.40
2023-09-14T17:04:49.929Z,21.70
2023-09-14T17:07:17.048Z,22.00
2023-09-14T17:09:44.396Z,22.30
2023-09-14T17:12:12.199Z,23.00
2023-09-14T17:14:38.977Z,22.00
2023-09-14T17:17:05.959Z,22.10
2023-09-14T17:19:32.643Z,22.20
2023-09-14T17:21:59.320Z,22.20
2023-09-14T17:24:25.921Z,22.20
2023-09-14T17:26:52.826Z,21.90
2023-09-14T17:29:19.662Z,21.40
2023-09-14T17:31:46.359Z,20.90
2023-09-14T17:34:13.034Z,20.90
2023-09-14T17:36:39.941Z,21.00
2023-09-14T17:39:06.725Z,21.00
2023-09-14T17:41:33.374Z,21.00
2023-09-14T17:44:00.066Z,20.90
2023-09-14T17:46:29.727Z,20.80
2023-09-14T17:49:00.236Z,20.70
2023-09-14T17:51:26.975Z,20.70
2023-09-14T17:53:53.766Z,20.70
2023-09-14T17:56:20.461Z,20.70
2023-09-14T17:58:47.250Z,20.60
2023-09-14T18:01:14.429Z,20.50
2023-09-14T18:03:41.645Z,20.40
2023-09-14T18:06:08.562Z,20.40
2023-09-14T18:08:35.326Z,20.40
2023-09-14T18:11:01.940Z,20.40
2023-09-14T18:13:28.701Z,20.40
2023-09-14T18:15:56.494Z,20.40
2023-09-14T18:18:23.128Z,20.30
2023-09-14T18:20:53.377Z,20.00
2023-09-14T18:23:23.646Z,19.90
2023-09-14T18:25:54.485Z,19.60
2023-09-14T18:28:21.104Z,19.20
2023-09-14T18:30:48.326Z,18.90
2023-09-14T18:33:15.052Z,19.00
2023-09-14T18:35:42.219Z,19.00
2023-09-14T18:38:08.805Z,18.90
2023-09-14T18:40:35.490Z,18.60
2023-09-14T18:43:02.187Z,18.50
2023-09-14T18:45:28.877Z,18.50
2023-09-14T18:47:56.637Z,18.60
2023-09-14T18:50:23.721Z,18.60
2023-09-14T18:52:50.360Z,18.50
2023-09-14T18:55:17.135Z,18.50
2023-09-14T18:57:44.603Z,18.50
2023-09-14T19:00:12.510Z,18.50
2023-09-14T19:02:45.151Z,18.50
2023-09-14T19:05:13.124Z,18.40
2023-09-14T19:07:40.506Z,18.20
2023-09-14T19:10:08.355Z,18.00
2023-09-14T19:12:35.691Z,18.00
2023-09-14T19:15:02.421Z,18.10
2023-09-14T19:17:29.488Z,17.90
2023-09-14T19:19:56.078Z,17.90
2023-09-14T19:22:22.722Z,18.00
2023-09-14T19:24:49.340Z,18.10
2023-09-14T19:27:15.926Z,18.20
2023-09-14T19:29:43.100Z,18.20
2023-09-14T19:32:09.836Z,18.20
2023-09-14T19:34:37.228Z,18.20
2023-09-14T19:37:04.679Z,18.10
2023-09-14T19:39:31.807Z,18.00
2023-09-14T19:41:58.578Z,18.00
2023-09-14T19:44:25.412Z,18.00
2023-09-14T19:46:52.098Z,17.90
2023-09-14T19:49:18.860Z,17.90
2023-09-14T19:51:45.521Z,17.90
2023-09-14T19:54:12.187Z,17.90
2023-09-14T19:56:38.786Z,17.90
2023-09-14T19:59:05.482Z,17.80
2023-09-14T20:01:32.091Z,17.80
2023-09-14T20:03:59.299Z,17.50
2023-09-14T20:06:26.629Z,17.40
2023-09-14T20:08:53.396Z,17.30
2023-09-14T20:11:20.387Z,17.10
2023-09-14T20:13:47.618Z,17.20
2023-09-14T20:16:14.808Z,17.30
2023-09-14T20:18:43.292Z,17.30
2023-09-14T20:21:10.338Z,17.40
2023-09-14T20:23:37.004Z,17.40
2023-09-14T20:26:05.150Z,17.30
2023-09-14T20:28:32.569Z,17.40
2023-09-14T20:30:59.322Z,17.50
2023-09-14T20:33:26.226Z,17.40
2023-09-14T20:35:52.887Z,17.50
2023-09-14T20:38:19.656Z,17.40
2023-09-14T20:40:47.571Z,17.30
2023-09-14T20:43:14.730Z,17.20
2023-09-14T20:45:42.158Z,17.20
2023-09-14T20:48:13.315Z,17.10
2023-09-14T20:50:42.299Z,17.10
2023-09-14T20:53:09.114Z,17.20
2023-09-14T20:55:43.948Z,17.20
2023-09-14T20:58:10.909Z,17.00
2023-09-14T21:00:37.737Z,17.00
2023-09-14T21:03:05.134Z,16.90
2023-09-14T21:05:31.997Z,16.70
2023-09-14T21:07:58.642Z,16.60
2023-09-14T21:10:25.393Z,16.50
2023-09-14T21:12:52.026Z,16.50
2023-09-14T21:15:18.787Z,16.60
2023-09-14T21:17:45.430Z,16.50
2023-09-14T21:20:12.197Z,16.40
2023-09-14T21:22:39.816Z,16.40
2023-09-14T21:25:07.494Z,16.40
2023-09-14T21:27:34.565Z,16.40
2023-09-14T21:30:01.233Z,16.30
2023-09-14T21:32:29.126Z,16.20
2023-09-14T21:34:55.824Z,16.10
2023-09-14T21:37:22.522Z,15.90
2023-09-14T21:39:51.876Z,15.80
2023-09-14T21:42:18.672Z,15.80
2023-09-14T21:44:45.290Z,15.70
2023-09-14T21:47:11.992Z,15.80
2023-09-14T21:49:40.657Z,15.70
2023-09-14T21:52:09.468Z,15.70
2023-09-14T21:54:40.337Z,15.70
2023-09-14T21:57:08.256Z,15.70
2023-09-14T21:59:36.499Z,15.70
2023-09-14T22:02:04.159Z,15.70
2023-09-14T22:04:31.108Z,15.70
2023-09-14T22:06:58.275Z,15.60
2023-09-14T22:09:26.317Z,15.60
2023-09-14T22:11:54.952Z,15.40
2023-09-14T22:14:21.761Z,15.30
2023-09-14T22:16:48.397Z,15.30
2023-09-14T22:19:15.355Z,15.30
2023-09-14T22:21:45.046Z,15.30
2023-09-14T22:24:12.155Z,15.30
2023-09-14T22:26:39.412Z,15.40
2023-09-14T22:29:06.073Z,15.40
2023-09-14T22:31:32.826Z,15.30
2023-09-14T22:33:59.570Z,15.10
2023-09-14T22:36:26.323Z,15.00
2023-09-14T22:38:52.891Z,14.90
2023-09-14T22:41:19.531Z,14.90
2023-09-14T22:43:46.617Z,14.90
2023-09-14T22:46:13.308Z,14.90
2023-09-14T22:48:42.154Z,14.90
2023-09-14T22:51:21.282Z,14.80
2023-09-14T22:53:49.041Z,14.90
2023-09-14T22:56:16.732Z,14.90
2023-09-14T22:58:51.739Z,14.80
2023-09-14T23:01:20.094Z,14.80
2023-09-14T23:03:48.276Z,14.80
2023-09-14T23:06:15.368Z,14.80
2023-09-14T23:08:43.365Z,14.80
2023-09-14T23:11:13.145Z,14.70
2023-09-14T23:13:40.146Z,14.70
2023-09-14T23:16:09.768Z,14.60
2023-09-14T23:18:40.126Z,14.60
2023-09-14T23:21:11.331Z,14.60
2023-09-14T23:23:39.153Z,14.50
2023-09-14T23:26:15.825Z,14.50
2023-09-14T23:28:42.539Z,14.40
2023-09-14T23:31:09.326Z,14.40
2023-09-14T23:33:37.085Z,14.40
2023-09-14T23:36:09.921Z,14.40
2023-09-14T23:38:37.438Z,14.30
2023-09-14T23:41:05.633Z,14.30
2023-09-14T23:43:32.891Z,14.30
2023-09-14T23:46:00.468Z,14.20
2023-09-14T23:48:28.275Z,14.20
2023-09-14T23:50:55.264Z,14.20
2023-09-14T23:53:22.255Z,14.30
2023-09-14T23:55:50.504Z,14.20
2023-09-14T23:58:20.394Z,14.30
